Kamikawa Maru — JG5687 — position and weather

sailwx.info

Track history (hours):
 
Tides and Currents Weather Stations Pressure Air Temp Water Temp Dewpoint Dewpoint Depression Visibility Wind Speed Wind Dir Waves Ship Positions

Kamikawa Maru

Last reported at 2015-Mar-03 11:25 UTC. Time now 2015-Mar-03 15:06 UTC.
Position N 35°04' E 139°43'.

Length 162 m; draft 6.8 m.

Type: Cargo ship. MMSI: 431101012.

Date/timePositionNaut miles runAvg speedWind from/ knotsBaromVisibWave heightAir tempDewpointWater temp
2015-Mar-03 11:25N 35°04' E 139°43'1315.3
2015-Mar-03 10:33N 35°18' E 139°44'1515.2
2015-Mar-03 09:33N 35°32' E 139°51'7 0.7
2015-Mar-02 23:29N 35°38' E 139°46'1011.3
2015-Mar-02 22:33N 35°28' E 139°51'1212.2
2015-Mar-02 21:34N 35°17' E 139°46'15 0.4
2015-Mar-01 08:33N 35°03' E 139°37'1514.8
2015-Mar-01 07:34N 35°17' E 139°45'1312.9
2015-Mar-01 06:34N 35°29' E 139°50'10 1.5
2015-Mar-01 00:08N 35°38' E 139°46'5 9.0
2015-Feb-28 23:33N 35°34' E 139°49'1413.8
2015-Feb-28 22:33N 35°21' E 139°45'1414.0
2015-Feb-28 21:33N 35°07' E 139°46'1712.3
2015-Feb-28 20:08N 34°54' E 139°60'  
2015-Feb-24 11:33N 35°07' E 139°44'1413.6
2015-Feb-24 10:33N 35°21' E 139°42'1614.4
2015-Feb-24 09:26N 35°37' E 139°46'1 0.1
2015-Feb-23 23:32N 35°38' E 139°46'1111.0
2015-Feb-23 22:34N 35°28' E 139°51'1211.9
2015-Feb-23 21:33N 35°17' E 139°46'16 0.4
2015-Feb-22 08:08N 35°03' E 139°37'1118.6
2015-Feb-22 07:33N 35°11' E 139°45'1313.4
2015-Feb-22 06:33N 35°24' E 139°43'1413.6
2015-Feb-22 05:33N 35°38' E 139°46'0 0.1
2015-Feb-22 00:04N 35°38' E 139°46'0 0.1
2015-Feb-21 23:33N 35°38' E 139°46'1110.7
2015-Feb-21 22:33N 35°28' E 139°51'1212.0
2015-Feb-21 21:33N 35°17' E 139°46'1413.8
2015-Feb-21 20:31N 35°03' E 139°42'  
Track history (hours):
 
Tides and Currents Weather Stations Pressure Air Temp Water Temp Dewpoint Dewpoint Depression Visibility Wind Speed Wind Dir Waves Ship Positions

Kamikawa Maru

Last reported at 2015-Mar-03 11:25 UTC. Time now 2015-Mar-03 15:06 UTC.
Position N 35°04' E 139°43'.

Length 162 m; draft 6.8 m.

Type: Cargo ship. MMSI: 431101012.

Date/timePositionNaut miles runAvg speedWind from/ knotsBaromVisibWave heightAir tempDewpointWater temp
2015-Mar-03 11:25N 35°04' E 139°43'1315.3
2015-Mar-03 10:33N 35°18' E 139°44'1515.2
2015-Mar-03 09:33N 35°32' E 139°51'7 0.7
2015-Mar-02 23:29N 35°38' E 139°46'1011.3
2015-Mar-02 22:33N 35°28' E 139°51'1212.2
2015-Mar-02 21:34N 35°17' E 139°46'15 0.4
2015-Mar-01 08:33N 35°03' E 139°37'1514.8
2015-Mar-01 07:34N 35°17' E 139°45'1312.9
2015-Mar-01 06:34N 35°29' E 139°50'10 1.5
2015-Mar-01 00:08N 35°38' E 139°46'5 9.0
2015-Feb-28 23:33N 35°34' E 139°49'1413.8
2015-Feb-28 22:33N 35°21' E 139°45'1414.0
2015-Feb-28 21:33N 35°07' E 139°46'1712.3
2015-Feb-28 20:08N 34°54' E 139°60'  
2015-Feb-24 11:33N 35°07' E 139°44'1413.6
2015-Feb-24 10:33N 35°21' E 139°42'1614.4
2015-Feb-24 09:26N 35°37' E 139°46'1 0.1
2015-Feb-23 23:32N 35°38' E 139°46'1111.0
2015-Feb-23 22:34N 35°28' E 139°51'1211.9
2015-Feb-23 21:33N 35°17' E 139°46'16 0.4
2015-Feb-22 08:08N 35°03' E 139°37'1118.6
2015-Feb-22 07:33N 35°11' E 139°45'1313.4
2015-Feb-22 06:33N 35°24' E 139°43'1413.6
2015-Feb-22 05:33N 35°38' E 139°46'0 0.1
2015-Feb-22 00:04N 35°38' E 139°46'0 0.1
2015-Feb-21 23:33N 35°38' E 139°46'1110.7
2015-Feb-21 22:33N 35°28' E 139°51'1212.0
2015-Feb-21 21:33N 35°17' E 139°46'1413.8
2015-Feb-21 20:31N 35°03' E 139°42'  

Dump ship's entire track history